CTV995 WILL-WIII
Flight info
| Callsign | CTV995 |
|---|---|
| Flight time | 0h 39m |
| Altitude | 27000 |
| Route | CKG |
| Aircraft | A20N/M-SDE2E3FGHIRWXY/LB1 |
Departure
| Time | 2026-04-28 05:48 |
|---|---|
| Airport | Radin Inten II International Airport (WILL) |
Arrival
| Time | 2026-04-28 06:27 |
|---|---|
| Airport | Soekarno-Hatta International Airport (WIII) |
| Time | Latitude | Longitude | Altitude | Speed | Heading |
|---|---|---|---|---|---|
| 2026-04-28 05:16 | -5.24259 | 105.17673 | 256 ft | 0 kts | 229° |
| 2026-04-28 05:37 | -5.24257 | 105.17675 | 266 ft | 1 kts | 229° |
| 2026-04-28 05:38 | -5.24252 | 105.17681 | 266 ft | 1 kts | 229° |
| 2026-04-28 05:38 | -5.24247 | 105.17687 | 266 ft | 1 kts | 229° |
| 2026-04-28 05:38 | -5.24242 | 105.17693 | 266 ft | 1 kts | 229° |
| 2026-04-28 05:38 | -5.24236 | 105.17699 | 266 ft | 1 kts | 226° |
| 2026-04-28 05:39 | -5.24229 | 105.17706 | 267 ft | 3 kts | 220° |
| 2026-04-28 05:39 | -5.24221 | 105.17713 | 268 ft | 1 kts | 213° |
| 2026-04-28 05:39 | -5.24214 | 105.17717 | 267 ft | 1 kts | 192° |
| 2026-04-28 05:39 | -5.24206 | 105.17718 | 267 ft | 1 kts | 169° |
| 2026-04-28 05:40 | -5.24200 | 105.17717 | 271 ft | 0 kts | 145° |
| 2026-04-28 05:41 | -5.24203 | 105.17719 | 271 ft | 2 kts | 145° |
| 2026-04-28 05:41 | -5.24240 | 105.17748 | 247 ft | 11 kts | 139° |
| 2026-04-28 05:41 | -5.24312 | 105.17809 | 250 ft | 16 kts | 139° |
| 2026-04-28 05:42 | -5.24405 | 105.17887 | 250 ft | 14 kts | 140° |
| 2026-04-28 05:42 | -5.24469 | 105.17942 | 250 ft | 13 kts | 135° |
| 2026-04-28 05:42 | -5.24477 | 105.18034 | 249 ft | 16 kts | 85° |
| 2026-04-28 05:42 | -5.24523 | 105.18139 | 249 ft | 19 kts | 142° |
| 2026-04-28 05:43 | -5.24634 | 105.18232 | 250 ft | 22 kts | 140° |
| 2026-04-28 05:43 | -5.24761 | 105.18340 | 250 ft | 24 kts | 139° |
| 2026-04-28 05:43 | -5.24883 | 105.18447 | 251 ft | 24 kts | 139° |
| 2026-04-28 05:43 | -5.25020 | 105.18563 | 251 ft | 27 kts | 140° |
| 2026-04-28 05:44 | -5.25173 | 105.18692 | 251 ft | 30 kts | 140° |
| 2026-04-28 05:44 | -5.25329 | 105.18823 | 249 ft | 25 kts | 140° |
| 2026-04-28 05:44 | -5.25461 | 105.18933 | 250 ft | 26 kts | 140° |
| 2026-04-28 05:44 | -5.25584 | 105.19047 | 249 ft | 16 kts | 117° |
| 2026-04-28 05:45 | -5.25643 | 105.19103 | 250 ft | 7 kts | 207° |
| 2026-04-28 05:45 | -5.25641 | 105.19086 | 250 ft | 3 kts | 308° |
| 2026-04-28 05:45 | -5.25624 | 105.19070 | 250 ft | 0 kts | 318° |
| 2026-04-28 05:47 | -5.25619 | 105.19066 | 249 ft | 2 kts | 318° |
| 2026-04-28 05:47 | -5.25590 | 105.19041 | 249 ft | 12 kts | 320° |
| 2026-04-28 05:47 | -5.25285 | 105.18783 | 250 ft | 102 kts | 320° |
| 2026-04-28 05:47 | -5.24838 | 105.18402 | 252 ft | 150 kts | 319° |
| 2026-04-28 05:48 | -5.23615 | 105.17325 | 851 ft | 190 kts | 320° |
| 2026-04-28 05:48 | -5.22605 | 105.16458 | 1634 ft | 186 kts | 323° |
| 2026-04-28 05:48 | -5.21865 | 105.16043 | 2233 ft | 181 kts | 344° |
| 2026-04-28 05:48 | -5.20586 | 105.16036 | 2803 ft | 194 kts | 21° |
| 2026-04-28 05:49 | -5.19468 | 105.16881 | 3268 ft | 216 kts | 56° |
| 2026-04-28 05:49 | -5.18777 | 105.18306 | 3795 ft | 238 kts | 69° |
| 2026-04-28 05:49 | -5.18210 | 105.19926 | 4363 ft | 260 kts | 71° |
| 2026-04-28 05:49 | -5.17607 | 105.21683 | 5150 ft | 270 kts | 71° |
| 2026-04-28 05:50 | -5.16958 | 105.23477 | 5676 ft | 274 kts | 70° |
| 2026-04-28 05:50 | -5.16274 | 105.25266 | 5885 ft | 274 kts | 69° |
| 2026-04-28 05:50 | -5.15571 | 105.27050 | 5969 ft | 275 kts | 68° |
| 2026-04-28 05:50 | -5.14859 | 105.28834 | 5979 ft | 274 kts | 68° |
| 2026-04-28 05:51 | -5.14159 | 105.30586 | 5979 ft | 274 kts | 68° |
| 2026-04-28 05:51 | -5.13451 | 105.32358 | 5981 ft | 274 kts | 68° |
| 2026-04-28 05:51 | -5.12740 | 105.34140 | 5976 ft | 275 kts | 68° |
| 2026-04-28 05:51 | -5.12029 | 105.35922 | 5979 ft | 274 kts | 68° |
| 2026-04-28 05:52 | -5.11319 | 105.37706 | 6120 ft | 277 kts | 68° |
| 2026-04-28 05:52 | -5.10600 | 105.39512 | 6693 ft | 280 kts | 68° |
| 2026-04-28 05:52 | -5.09902 | 105.41319 | 7693 ft | 278 kts | 74° |
| 2026-04-28 05:52 | -5.09744 | 105.43233 | 8544 ft | 282 kts | 99° |
| 2026-04-28 05:53 | -5.10451 | 105.45065 | 9396 ft | 286 kts | 124° |
| 2026-04-28 05:53 | -5.11864 | 105.46491 | 10188 ft | 292 kts | 139° |
| 2026-04-28 05:53 | -5.13472 | 105.47836 | 10565 ft | 313 kts | 139° |
| 2026-04-28 05:53 | -5.15213 | 105.49285 | 10813 ft | 336 kts | 139° |
| 2026-04-28 05:54 | -5.17047 | 105.50818 | 11370 ft | 346 kts | 140° |
| 2026-04-28 05:54 | -5.19130 | 105.52057 | 12117 ft | 351 kts | 158° |
| 2026-04-28 05:54 | -5.21533 | 105.52591 | 12842 ft | 357 kts | 176° |
| 2026-04-28 05:54 | -5.24002 | 105.52504 | 13546 ft | 363 kts | 182° |
| 2026-04-28 05:55 | -5.26546 | 105.52348 | 14210 ft | 366 kts | 182° |
| 2026-04-28 05:55 | -5.29104 | 105.52193 | 14869 ft | 369 kts | 182° |
| 2026-04-28 05:55 | -5.31685 | 105.52040 | 15513 ft | 373 kts | 182° |
| 2026-04-28 05:55 | -5.34285 | 105.51891 | 16138 ft | 376 kts | 182° |
| 2026-04-28 05:56 | -5.36918 | 105.51742 | 16770 ft | 379 kts | 182° |
| 2026-04-28 05:56 | -5.39567 | 105.51593 | 17374 ft | 383 kts | 182° |
| 2026-04-28 05:56 | -5.42224 | 105.51444 | 17952 ft | 386 kts | 182° |
| 2026-04-28 05:56 | -5.44907 | 105.51293 | 18507 ft | 389 kts | 182° |
| 2026-04-28 05:57 | -5.47631 | 105.51140 | 19048 ft | 391 kts | 182° |
| 2026-04-28 05:57 | -5.50366 | 105.50987 | 19571 ft | 394 kts | 182° |
| 2026-04-28 05:57 | -5.53115 | 105.50832 | 20085 ft | 397 kts | 182° |
| 2026-04-28 05:57 | -5.55867 | 105.50677 | 20596 ft | 399 kts | 182° |
| 2026-04-28 05:58 | -5.58667 | 105.50520 | 21099 ft | 402 kts | 182° |
| 2026-04-28 05:58 | -5.61474 | 105.50362 | 21598 ft | 405 kts | 182° |
| 2026-04-28 05:58 | -5.64274 | 105.50205 | 22085 ft | 408 kts | 181° |
| 2026-04-28 05:58 | -5.67123 | 105.50386 | 22552 ft | 410 kts | 168° |
| 2026-04-28 05:59 | -5.69843 | 105.51240 | 22999 ft | 412 kts | 155° |
| 2026-04-28 05:59 | -5.72308 | 105.52722 | 23437 ft | 414 kts | 144° |
| 2026-04-28 05:59 | -5.74632 | 105.54408 | 23804 ft | 418 kts | 144° |
| 2026-04-28 05:59 | -5.76991 | 105.56116 | 24188 ft | 420 kts | 144° |
| 2026-04-28 06:00 | -5.79384 | 105.57844 | 24582 ft | 422 kts | 144° |
| 2026-04-28 06:00 | -5.81769 | 105.59565 | 24956 ft | 425 kts | 144° |
| 2026-04-28 06:00 | -5.84192 | 105.61310 | 25327 ft | 427 kts | 144° |
| 2026-04-28 06:00 | -5.86617 | 105.63057 | 25698 ft | 429 kts | 144° |
| 2026-04-28 06:01 | -5.89046 | 105.64808 | 26054 ft | 432 kts | 144° |
| 2026-04-28 06:01 | -5.91496 | 105.66573 | 26402 ft | 434 kts | 144° |
| 2026-04-28 06:01 | -5.93938 | 105.68333 | 26719 ft | 436 kts | 144° |
| 2026-04-28 06:01 | -5.96416 | 105.70120 | 26823 ft | 438 kts | 144° |
| 2026-04-28 06:02 | -5.98895 | 105.71907 | 26836 ft | 437 kts | 144° |
| 2026-04-28 06:02 | -6.01361 | 105.73685 | 26836 ft | 436 kts | 144° |
| 2026-04-28 06:02 | -6.03806 | 105.75447 | 26836 ft | 436 kts | 144° |
| 2026-04-28 06:02 | -6.06265 | 105.77220 | 26835 ft | 436 kts | 144° |
| 2026-04-28 06:03 | -6.08765 | 105.79023 | 26838 ft | 436 kts | 144° |
| 2026-04-28 06:03 | -6.11197 | 105.80777 | 26840 ft | 435 kts | 144° |
| 2026-04-28 06:03 | -6.13657 | 105.82558 | 26839 ft | 436 kts | 142° |
| 2026-04-28 06:03 | -6.15862 | 105.84632 | 26837 ft | 436 kts | 130° |
| 2026-04-28 06:04 | -6.17556 | 105.87164 | 26840 ft | 436 kts | 117° |
| 2026-04-28 06:04 | -6.18640 | 105.90015 | 26841 ft | 437 kts | 104° |
| 2026-04-28 06:04 | -6.19061 | 105.93048 | 26842 ft | 438 kts | 92° |
| 2026-04-28 06:04 | -6.19043 | 105.96066 | 26841 ft | 438 kts | 89° |
| 2026-04-28 06:05 | -6.18941 | 105.99127 | 26840 ft | 438 kts | 89° |
| 2026-04-28 06:05 | -6.18858 | 106.02191 | 26839 ft | 437 kts | 89° |
| 2026-04-28 06:05 | -6.18811 | 106.05253 | 26837 ft | 437 kts | 90° |
| 2026-04-28 06:05 | -6.18791 | 106.08303 | 26836 ft | 436 kts | 90° |
| 2026-04-28 06:06 | -6.18786 | 106.11310 | 26834 ft | 420 kts | 90° |
| 2026-04-28 06:06 | -6.18785 | 106.14178 | 26827 ft | 400 kts | 91° |
| 2026-04-28 06:06 | -6.18787 | 106.16885 | 26836 ft | 375 kts | 91° |
| 2026-04-28 06:06 | -6.18788 | 106.19416 | 26836 ft | 352 kts | 91° |
| 2026-04-28 06:07 | -6.18790 | 106.21776 | 26836 ft | 329 kts | 91° |
| 2026-04-28 06:07 | -6.18790 | 106.24004 | 26837 ft | 311 kts | 91° |
| 2026-04-28 06:07 | -6.18792 | 106.26204 | 26844 ft | 318 kts | 91° |
| 2026-04-28 06:07 | -6.18794 | 106.28429 | 26823 ft | 322 kts | 90° |
| 2026-04-28 06:08 | -6.18794 | 106.30696 | 26590 ft | 326 kts | 90° |
| 2026-04-28 06:08 | -6.18794 | 106.32973 | 26117 ft | 326 kts | 90° |
| 2026-04-28 06:08 | -6.18792 | 106.35241 | 25629 ft | 322 kts | 91° |
| 2026-04-28 06:08 | -6.18791 | 106.37467 | 25150 ft | 317 kts | 91° |
| 2026-04-28 06:09 | -6.18791 | 106.39661 | 24682 ft | 313 kts | 91° |
| 2026-04-28 06:09 | -6.18790 | 106.41777 | 24230 ft | 309 kts | 91° |
| 2026-04-28 06:09 | -6.18789 | 106.43957 | 23775 ft | 310 kts | 91° |
| 2026-04-28 06:09 | -6.18789 | 106.46121 | 23290 ft | 309 kts | 91° |
| 2026-04-28 06:10 | -6.18788 | 106.48280 | 22748 ft | 306 kts | 91° |
| 2026-04-28 06:10 | -6.18788 | 106.50404 | 22218 ft | 303 kts | 91° |
| 2026-04-28 06:10 | -6.18787 | 106.52502 | 21700 ft | 299 kts | 91° |
| 2026-04-28 06:10 | -6.18690 | 106.54582 | 21173 ft | 296 kts | 78° |
| 2026-04-28 06:11 | -6.17867 | 106.56452 | 20677 ft | 296 kts | 53° |
| 2026-04-28 06:11 | -6.16400 | 106.57895 | 20188 ft | 300 kts | 42° |
| 2026-04-28 06:11 | -6.14875 | 106.59346 | 19701 ft | 296 kts | 50° |
| 2026-04-28 06:11 | -6.13835 | 106.61054 | 19223 ft | 288 kts | 75° |
| 2026-04-28 06:12 | -6.13630 | 106.63010 | 18753 ft | 280 kts | 100° |
| 2026-04-28 06:12 | -6.14307 | 106.64826 | 18285 ft | 280 kts | 126° |
| 2026-04-28 06:12 | -6.15713 | 106.66138 | 17790 ft | 279 kts | 151° |
| 2026-04-28 06:12 | -6.17564 | 106.66679 | 17260 ft | 279 kts | 178° |
| 2026-04-28 06:13 | -6.19483 | 106.66313 | 16762 ft | 286 kts | 204° |
| 2026-04-28 06:13 | -6.21086 | 106.65105 | 16253 ft | 294 kts | 228° |
| 2026-04-28 06:13 | -6.22269 | 106.63404 | 15756 ft | 300 kts | 238° |
| 2026-04-28 06:13 | -6.23228 | 106.61520 | 15260 ft | 305 kts | 244° |
| 2026-04-28 06:14 | -6.24018 | 106.59524 | 14777 ft | 310 kts | 250° |
| 2026-04-28 06:14 | -6.24629 | 106.57439 | 14301 ft | 314 kts | 256° |
| 2026-04-28 06:14 | -6.25024 | 106.55266 | 13831 ft | 318 kts | 263° |
| 2026-04-28 06:14 | -6.25218 | 106.53043 | 13325 ft | 321 kts | 263° |
| 2026-04-28 06:15 | -6.25555 | 106.50816 | 12802 ft | 323 kts | 259° |
| 2026-04-28 06:15 | -6.25812 | 106.48564 | 12280 ft | 326 kts | 271° |
| 2026-04-28 06:15 | -6.25511 | 106.46310 | 11779 ft | 327 kts | 281° |
| 2026-04-28 06:15 | -6.25065 | 106.44058 | 11261 ft | 326 kts | 282° |
| 2026-04-28 06:16 | -6.24582 | 106.41885 | 10779 ft | 320 kts | 283° |
| 2026-04-28 06:16 | -6.23960 | 106.39759 | 10289 ft | 314 kts | 297° |
| 2026-04-28 06:16 | -6.22671 | 106.38042 | 9813 ft | 305 kts | 322° |
| 2026-04-28 06:16 | -6.20852 | 106.37051 | 9298 ft | 296 kts | 347° |
| 2026-04-28 06:17 | -6.18850 | 106.36938 | 8777 ft | 286 kts | 13° |
| 2026-04-28 06:17 | -6.17059 | 106.37702 | 8256 ft | 277 kts | 40° |
| 2026-04-28 06:17 | -6.15850 | 106.39150 | 7718 ft | 271 kts | 66° |
| 2026-04-28 06:18 | -6.15887 | 106.42806 | 6432 ft | 275 kts | 113° |
| 2026-04-28 06:18 | -6.16690 | 106.44556 | 5742 ft | 278 kts | 114° |
| 2026-04-28 06:18 | -6.17415 | 106.46367 | 5074 ft | 280 kts | 109° |
| 2026-04-28 06:18 | -6.17971 | 106.48244 | 4396 ft | 280 kts | 104° |
| 2026-04-28 06:19 | -6.18642 | 106.50070 | 3717 ft | 281 kts | 122° |
| 2026-04-28 06:19 | -6.20027 | 106.51441 | 3084 ft | 283 kts | 149° |
| 2026-04-28 06:19 | -6.21854 | 106.52008 | 2685 ft | 276 kts | 176° |
| 2026-04-28 06:19 | -6.23667 | 106.51650 | 2571 ft | 259 kts | 206° |
| 2026-04-28 06:20 | -6.24953 | 106.50531 | 2612 ft | 236 kts | 239° |
| 2026-04-28 06:20 | -6.25410 | 106.49033 | 2679 ft | 222 kts | 273° |
| 2026-04-28 06:20 | -6.24964 | 106.47545 | 2761 ft | 229 kts | 302° |
| 2026-04-28 06:20 | -6.24116 | 106.46171 | 2839 ft | 230 kts | 302° |
| 2026-04-28 06:21 | -6.23405 | 106.44734 | 2909 ft | 231 kts | 293° |
| 2026-04-28 06:21 | -6.22680 | 106.43300 | 2981 ft | 229 kts | 314° |
| 2026-04-28 06:21 | -6.21434 | 106.42478 | 2999 ft | 207 kts | 351° |
| 2026-04-28 06:21 | -6.20143 | 106.42655 | 2994 ft | 183 kts | 39° |
| 2026-04-28 06:22 | -6.19475 | 106.43720 | 3030 ft | 190 kts | 80° |
| 2026-04-28 06:22 | -6.19302 | 106.45041 | 2995 ft | 187 kts | 83° |
| 2026-04-28 06:22 | -6.19056 | 106.46278 | 3008 ft | 174 kts | 75° |
| 2026-04-28 06:22 | -6.18682 | 106.47381 | 3002 ft | 159 kts | 69° |
| 2026-04-28 06:23 | -6.18260 | 106.48422 | 3018 ft | 165 kts | 69° |
| 2026-04-28 06:23 | -6.17826 | 106.49517 | 2941 ft | 170 kts | 69° |
| 2026-04-28 06:23 | -6.17381 | 106.50630 | 2737 ft | 172 kts | 69° |
| 2026-04-28 06:23 | -6.16933 | 106.51753 | 2500 ft | 173 kts | 69° |
| 2026-04-28 06:24 | -6.16483 | 106.52880 | 2309 ft | 172 kts | 68° |
| 2026-04-28 06:24 | -6.16058 | 106.53953 | 2072 ft | 160 kts | 68° |
| 2026-04-28 06:24 | -6.15659 | 106.54952 | 1883 ft | 150 kts | 67° |
| 2026-04-28 06:24 | -6.15284 | 106.55897 | 1686 ft | 141 kts | 66° |
| 2026-04-28 06:25 | -6.14930 | 106.56778 | 1515 ft | 135 kts | 66° |
| 2026-04-28 06:25 | -6.14578 | 106.57662 | 1338 ft | 137 kts | 66° |
| 2026-04-28 06:25 | -6.14221 | 106.58556 | 1169 ft | 139 kts | 68° |
| 2026-04-28 06:25 | -6.13862 | 106.59461 | 997 ft | 138 kts | 66° |
| 2026-04-28 06:26 | -6.13498 | 106.60371 | 806 ft | 142 kts | 65° |
| 2026-04-28 06:26 | -6.13134 | 106.61285 | 627 ft | 137 kts | 66° |
| 2026-04-28 06:26 | -6.12775 | 106.62185 | 447 ft | 140 kts | 65° |
| 2026-04-28 06:26 | -6.12427 | 106.63063 | 274 ft | 133 kts | 64° |
| 2026-04-28 06:27 | -6.12072 | 106.63946 | 97 ft | 139 kts | 66° |
| 2026-04-28 06:27 | -6.11719 | 106.64824 | 43 ft | 121 kts | 65° |
| 2026-04-28 06:27 | -6.11509 | 106.65355 | 37 ft | 65 kts | 69° |
| 2026-04-28 06:27 | -6.11415 | 106.65702 | 39 ft | 42 kts | 88° |
| 2026-04-28 06:28 | -6.11483 | 106.65885 | 38 ft | 24 kts | 153° |
| 2026-04-28 06:28 | -6.11553 | 106.65918 | 38 ft | 2 kts | 154° |
| 2026-04-28 06:28 | -6.11583 | 106.65933 | 38 ft | 7 kts | 154° |
| 2026-04-28 06:28 | -6.11641 | 106.65961 | 38 ft | 11 kts | 154° |
| 2026-04-28 06:29 | -6.11725 | 106.65996 | 38 ft | 15 kts | 158° |
| 2026-04-28 06:29 | -6.11800 | 106.66060 | 38 ft | 15 kts | 92° |
| 2026-04-28 06:29 | -6.11764 | 106.66159 | 36 ft | 16 kts | 69° |
| 2026-04-28 06:29 | -6.11719 | 106.66271 | 38 ft | 18 kts | 67° |
| 2026-04-28 06:30 | -6.11674 | 106.66387 | 38 ft | 13 kts | 68° |
| 2026-04-28 06:30 | -6.11693 | 106.66435 | 37 ft | 9 kts | 143° |
| 2026-04-28 06:30 | -6.11746 | 106.66460 | 38 ft | 2 kts | 159° |
| 2026-04-28 06:30 | -6.11759 | 106.66465 | 38 ft | 0 kts | 158° |